createdAt,value
2018-02-23T00:00:32.735Z,35.40
2018-02-23T00:01:08.612Z,31.20
2018-02-23T00:01:43.925Z,34.00
2018-02-23T00:02:19.237Z,35.80
2018-02-23T00:02:55.039Z,35.60
2018-02-23T00:03:30.442Z,36.80
2018-02-23T00:04:05.695Z,37.10
2018-02-23T00:04:41.528Z,33.30
2018-02-23T00:05:17.017Z,35.80
2018-02-23T00:05:52.353Z,36.80
2018-02-23T00:06:27.390Z,32.40
2018-02-23T00:07:02.683Z,35.00
2018-02-23T00:07:38.006Z,38.70
2018-02-23T00:08:13.308Z,39.90
2018-02-23T00:08:48.839Z,39.30
2018-02-23T00:09:24.392Z,36.50
2018-02-23T00:10:00.103Z,33.60
2018-02-23T00:10:35.733Z,31.80
2018-02-23T00:11:11.128Z,36.40
2018-02-23T00:11:46.531Z,41.60
2018-02-23T00:12:22.379Z,39.90
2018-02-23T00:12:58.071Z,37.70
2018-02-23T00:13:34.095Z,37.80
2018-02-23T00:14:09.472Z,36.80
2018-02-23T00:14:45.320Z,36.30
2018-02-23T00:15:20.839Z,36.00
2018-02-23T00:15:59.635Z,33.00
2018-02-23T00:16:35.504Z,32.80
2018-02-23T00:17:10.945Z,36.70
2018-02-23T00:17:46.739Z,39.50
2018-02-23T00:18:22.052Z,38.00
2018-02-23T00:18:57.667Z,35.40
2018-02-23T00:19:33.282Z,35.10
2018-02-23T00:20:08.707Z,35.90
2018-02-23T00:20:44.055Z,37.30
2018-02-23T00:21:19.977Z,36.20
2018-02-23T00:21:55.383Z,34.30
2018-02-23T00:22:32.398Z,33.10
2018-02-23T00:23:07.773Z,35.10
2018-02-23T00:23:42.999Z,38.00
2018-02-23T00:24:18.590Z,36.20
2018-02-23T00:24:54.901Z,35.70
2018-02-23T00:25:30.236Z,37.50
2018-02-23T00:26:05.439Z,35.00
2018-02-23T00:26:40.874Z,37.20
2018-02-23T00:27:16.516Z,35.20
2018-02-23T00:27:52.231Z,38.60
2018-02-23T00:28:27.437Z,39.10
2018-02-23T00:29:02.615Z,37.30
2018-02-23T00:29:37.910Z,34.00
2018-02-23T00:30:13.203Z,38.10
2018-02-23T00:30:48.763Z,41.40
2018-02-23T00:31:24.078Z,38.20
2018-02-23T00:31:59.502Z,37.00
2018-02-23T00:32:34.831Z,38.40
2018-02-23T00:33:10.325Z,38.60
2018-02-23T00:33:45.820Z,40.50
2018-02-23T00:34:21.251Z,41.80
2018-02-23T00:34:56.647Z,36.80
2018-02-23T00:35:31.958Z,40.90
2018-02-23T00:36:07.078Z,36.40
2018-02-23T00:36:47.513Z,32.00
2018-02-23T00:37:22.819Z,35.80
2018-02-23T00:37:58.209Z,39.50
2018-02-23T00:38:33.827Z,43.30
2018-02-23T00:39:09.230Z,40.30
2018-02-23T00:39:44.854Z,39.90
2018-02-23T00:40:20.470Z,37.40
2018-02-23T00:40:58.881Z,34.70
2018-02-23T00:41:35.753Z,41.30
2018-02-23T00:42:13.742Z,41.20
2018-02-23T00:42:49.251Z,38.00
2018-02-23T00:43:25.881Z,39.60
2018-02-23T00:44:01.780Z,42.20
2018-02-23T00:44:41.023Z,42.40
2018-02-23T00:45:16.220Z,38.40
2018-02-23T00:45:54.528Z,38.30
2018-02-23T00:46:30.048Z,37.50
2018-02-23T00:47:05.180Z,40.40
2018-02-23T00:47:42.517Z,41.10
2018-02-23T00:48:18.714Z,40.80
2018-02-23T00:48:57.235Z,43.70
2018-02-23T00:49:34.070Z,43.20
2018-02-23T00:50:09.259Z,41.70
2018-02-23T00:50:46.078Z,39.20
2018-02-23T00:51:21.992Z,38.30
2018-02-23T00:51:57.513Z,39.00
2018-02-23T00:52:33.255Z,39.90
2018-02-23T00:53:10.190Z,42.20
2018-02-23T00:53:45.644Z,42.10
2018-02-23T00:54:20.967Z,40.70
2018-02-23T00:54:56.370Z,40.50
2018-02-23T00:55:31.690Z,41.30
2018-02-23T00:56:07.124Z,41.70
2018-02-23T00:56:42.426Z,39.40
2018-02-23T00:57:18.021Z,41.30
2018-02-23T00:57:53.925Z,37.60
2018-02-23T00:58:29.278Z,38.50
2018-02-23T00:59:04.667Z,40.10
2018-02-23T00:59:40.075Z,42.90
2018-02-23T01:00:15.509Z,43.40
2018-02-23T01:00:52.660Z,39.80
2018-02-23T01:01:28.963Z,41.60
2018-02-23T01:02:04.451Z,42.70
2018-02-23T01:02:39.795Z,41.40
2018-02-23T01:03:15.304Z,40.40
2018-02-23T01:03:51.021Z,40.00
2018-02-23T01:04:26.555Z,41.40
2018-02-23T01:05:02.143Z,39.30
2018-02-23T01:05:37.997Z,39.70
2018-02-23T01:06:13.010Z,41.40
2018-02-23T01:06:49.985Z,38.00
2018-02-23T01:07:27.736Z,39.80
2018-02-23T01:08:03.029Z,42.60
2018-02-23T01:08:38.685Z,41.10
2018-02-23T01:09:14.172Z,38.50
2018-02-23T01:09:49.411Z,42.70
2018-02-23T01:10:25.047Z,44.50
2018-02-23T01:11:00.778Z,44.80
2018-02-23T01:11:35.806Z,43.90
2018-02-23T01:12:11.097Z,44.00
2018-02-23T01:12:46.423Z,44.50
2018-02-23T01:13:21.842Z,44.60
2018-02-23T01:13:57.381Z,46.60
2018-02-23T01:14:32.715Z,44.00
2018-02-23T01:15:08.110Z,46.60
2018-02-23T01:15:43.842Z,44.40
2018-02-23T01:16:19.047Z,40.70
2018-02-23T01:16:54.454Z,43.60
2018-02-23T01:17:29.863Z,46.40
2018-02-23T01:18:05.470Z,46.50
2018-02-23T01:18:40.584Z,41.90
2018-02-23T01:19:16.200Z,43.50
2018-02-23T01:19:51.420Z,44.40
2018-02-23T01:20:26.847Z,45.10
2018-02-23T01:21:02.050Z,43.00
2018-02-23T01:21:37.268Z,43.80
2018-02-23T01:22:12.565Z,45.10
2018-02-23T01:22:47.692Z,42.30
2018-02-23T01:23:22.921Z,41.20
2018-02-23T01:23:58.143Z,41.20
2018-02-23T01:24:33.497Z,43.90
2018-02-23T01:25:09.192Z,46.90
2018-02-23T01:25:45.125Z,48.90
2018-02-23T01:26:20.448Z,46.20
2018-02-23T01:26:55.806Z,48.10
2018-02-23T01:27:31.075Z,50.40
2018-02-23T01:28:06.471Z,48.60
2018-02-23T01:28:41.969Z,47.50
2018-02-23T01:29:17.164Z,49.70
2018-02-23T01:29:52.464Z,49.30
2018-02-23T01:30:27.789Z,44.40
2018-02-23T01:31:02.989Z,46.30
2018-02-23T01:31:38.423Z,46.90
2018-02-23T01:32:13.801Z,49.40
2018-02-23T01:32:49.011Z,51.20
2018-02-23T01:33:24.450Z,50.20
2018-02-23T01:33:59.844Z,47.70
2018-02-23T01:34:35.502Z,48.30
2018-02-23T01:35:11.011Z,43.90
2018-02-23T01:35:46.392Z,45.60
2018-02-23T01:36:21.888Z,49.90
2018-02-23T01:36:57.393Z,44.10
2018-02-23T01:37:32.707Z,43.10
2018-02-23T01:38:07.905Z,49.10
2018-02-23T01:38:43.350Z,54.40
2018-02-23T01:39:18.582Z,49.40
2018-02-23T01:39:53.989Z,49.20
2018-02-23T01:40:29.230Z,49.70
2018-02-23T01:41:04.533Z,49.80
2018-02-23T01:41:40.285Z,49.60
2018-02-23T01:42:15.989Z,48.80
2018-02-23T01:42:51.329Z,49.60
2018-02-23T01:43:26.969Z,49.30
2018-02-23T01:44:02.193Z,50.80
2018-02-23T01:44:38.109Z,51.00
2018-02-23T01:45:13.609Z,50.20
2018-02-23T01:45:53.534Z,51.30
2018-02-23T01:46:29.280Z,51.00
2018-02-23T01:47:04.499Z,50.20
2018-02-23T01:47:40.317Z,46.80
2018-02-23T01:48:15.540Z,48.70
2018-02-23T01:48:50.784Z,48.70
2018-02-23T01:49:26.617Z,44.90
2018-02-23T01:50:01.929Z,47.60
2018-02-23T01:50:38.236Z,50.70
2018-02-23T01:51:13.367Z,51.40
2018-02-23T01:51:48.681Z,50.10
2018-02-23T01:52:24.029Z,51.90
2018-02-23T01:52:59.344Z,52.40
2018-02-23T01:53:34.875Z,51.80
2018-02-23T01:54:10.187Z,49.50
2018-02-23T01:54:45.983Z,46.00
2018-02-23T01:55:21.087Z,49.40
2018-02-23T01:55:56.404Z,50.90
2018-02-23T01:56:31.871Z,49.80
2018-02-23T01:57:06.977Z,49.50
2018-02-23T01:57:42.521Z,56.00
2018-02-23T01:58:17.846Z,50.70
2018-02-23T01:58:53.269Z,50.10
2018-02-23T01:59:28.583Z,52.60
2018-02-23T02:00:04.206Z,53.50
2018-02-23T02:00:41.134Z,48.10
2018-02-23T02:01:16.536Z,51.40
2018-02-23T02:01:51.856Z,50.50
2018-02-23T02:02:27.089Z,50.80
2018-02-23T02:03:02.484Z,52.70
2018-02-23T02:03:37.997Z,50.70
2018-02-23T02:04:13.679Z,50.90
2018-02-23T02:04:48.999Z,54.90
2018-02-23T02:05:24.541Z,52.20
2018-02-23T02:06:00.131Z,55.10
2018-02-23T02:06:35.719Z,53.00
2018-02-23T02:07:11.324Z,57.00
2018-02-23T02:07:47.139Z,55.80
2018-02-23T02:08:22.643Z,54.50
2018-02-23T02:08:58.146Z,53.10
2018-02-23T02:09:33.451Z,56.30
2018-02-23T02:10:08.971Z,58.70
2018-02-23T02:10:45.837Z,54.90
2018-02-23T02:11:21.608Z,52.10
2018-02-23T02:11:56.710Z,52.00
2018-02-23T02:12:31.834Z,51.90
2018-02-23T02:13:07.235Z,57.10
2018-02-23T02:13:42.852Z,56.70
2018-02-23T02:14:18.954Z,57.40
2018-02-23T02:14:54.469Z,52.80
2018-02-23T02:15:29.866Z,54.40
2018-02-23T02:16:07.361Z,56.30
2018-02-23T02:16:45.901Z,59.50
2018-02-23T02:17:21.326Z,60.80
2018-02-23T02:17:56.813Z,59.30
2018-02-23T02:18:34.665Z,59.70
2018-02-23T02:19:12.060Z,61.70
2018-02-23T02:19:47.578Z,57.90
2018-02-23T02:20:28.883Z,56.40
2018-02-23T02:21:04.390Z,63.70
2018-02-23T02:21:40.359Z,58.90
2018-02-23T02:22:18.559Z,53.40
2018-02-23T02:22:53.970Z,50.80
2018-02-23T02:23:29.411Z,55.40
2018-02-23T02:24:05.046Z,56.60
2018-02-23T02:24:44.066Z,56.90
2018-02-23T02:25:19.582Z,57.30
2018-02-23T02:25:55.177Z,58.90
2018-02-23T02:26:30.695Z,58.30
2018-02-23T02:27:05.999Z,55.00
2018-02-23T02:27:47.235Z,56.10
2018-02-23T02:28:25.755Z,59.80
2018-02-23T02:29:01.019Z,61.20
2018-02-23T02:29:36.623Z,61.90
2018-02-23T02:30:12.324Z,57.90
2018-02-23T02:30:48.294Z,57.80
2018-02-23T02:31:23.728Z,57.50
2018-02-23T02:31:59.171Z,58.10
2018-02-23T02:32:34.574Z,61.80
2018-02-23T02:33:10.063Z,63.90
2018-02-23T02:33:52.206Z,61.30
2018-02-23T02:34:28.458Z,63.00
2018-02-23T02:35:03.782Z,63.70
2018-02-23T02:35:41.308Z,59.60
2018-02-23T02:36:16.800Z,64.50
2018-02-23T02:36:52.672Z,65.00
2018-02-23T02:37:28.091Z,64.40
2018-02-23T02:38:03.184Z,62.10
2018-02-23T02:38:38.612Z,61.40
2018-02-23T02:39:14.222Z,60.60
2018-02-23T02:39:52.964Z,61.20
2018-02-23T02:40:28.283Z,63.00
2018-02-23T02:41:03.659Z,62.80
2018-02-23T02:41:38.959Z,64.20
2018-02-23T02:42:14.490Z,72.60
2018-02-23T02:42:49.814Z,64.50
2018-02-23T02:43:25.137Z,63.40
2018-02-23T02:44:00.340Z,61.70
2018-02-23T02:44:35.665Z,62.50
2018-02-23T02:45:11.171Z,67.50
2018-02-23T02:45:47.733Z,64.40
2018-02-23T02:46:23.390Z,60.70
2018-02-23T02:46:58.810Z,60.10
2018-02-23T02:47:34.223Z,63.20
2018-02-23T02:48:09.909Z,62.00
2018-02-23T02:48:45.229Z,57.10
2018-02-23T02:49:20.562Z,63.90
2018-02-23T02:49:58.457Z,66.20
2018-02-23T02:50:34.176Z,64.70
2018-02-23T02:51:11.684Z,59.50
2018-02-23T02:51:47.205Z,62.20
2018-02-23T02:52:22.588Z,63.50
2018-02-23T02:52:58.501Z,65.30
2018-02-23T02:53:33.966Z,65.30
2018-02-23T02:54:09.158Z,62.10
2018-02-23T02:54:44.510Z,58.20
2018-02-23T02:55:21.760Z,58.10
2018-02-23T02:55:58.366Z,62.90
2018-02-23T02:56:34.305Z,63.80
2018-02-23T02:57:09.547Z,68.80
2018-02-23T02:57:45.260Z,68.10
2018-02-23T02:58:20.497Z,65.30
2018-02-23T02:58:56.583Z,61.80
2018-02-23T02:59:32.110Z,64.60
2018-02-23T03:00:09.083Z,64.10
2018-02-23T03:00:45.321Z,63.80
2018-02-23T03:01:20.770Z,69.10
2018-02-23T03:01:56.072Z,73.50
2018-02-23T03:02:31.352Z,73.80
2018-02-23T03:03:06.859Z,66.70
2018-02-23T03:03:42.449Z,68.30
2018-02-23T03:04:17.922Z,68.70
2018-02-23T03:04:57.155Z,68.00
2018-02-23T03:05:32.661Z,71.40
2018-02-23T03:06:07.969Z,72.30
2018-02-23T03:06:43.397Z,66.10
2018-02-23T03:07:19.144Z,65.90
2018-02-23T03:07:54.533Z,68.70
2018-02-23T03:08:29.858Z,66.90
2018-02-23T03:09:05.261Z,66.80
2018-02-23T03:09:40.998Z,68.20
2018-02-23T03:10:16.270Z,67.20
2018-02-23T03:10:52.079Z,67.10
2018-02-23T03:11:27.380Z,73.40
2018-02-23T03:12:02.864Z,69.60
2018-02-23T03:12:38.716Z,69.70
2018-02-23T03:13:14.244Z,69.60
2018-02-23T03:13:49.559Z,65.00
2018-02-23T03:14:24.926Z,66.20
2018-02-23T03:15:00.290Z,69.10
2018-02-23T03:15:35.795Z,67.80
2018-02-23T03:16:11.224Z,72.70
2018-02-23T03:16:46.642Z,72.80
2018-02-23T03:17:22.101Z,65.00
2018-02-23T03:17:57.492Z,73.30
2018-02-23T03:18:32.608Z,69.90
2018-02-23T03:19:07.900Z,70.40
2018-02-23T03:19:43.125Z,72.30
2018-02-23T03:20:18.351Z,72.60
2018-02-23T03:20:53.546Z,74.40
2018-02-23T03:21:28.803Z,71.40
2018-02-23T03:22:04.320Z,75.60
2018-02-23T03:22:39.679Z,79.30
2018-02-23T03:23:15.068Z,74.40
2018-02-23T03:23:50.582Z,71.10
2018-02-23T03:24:26.102Z,80.00
2018-02-23T03:25:01.681Z,79.70
2018-02-23T03:25:38.641Z,78.20
2018-02-23T03:26:14.037Z,74.40
2018-02-23T03:26:49.592Z,75.60
2018-02-23T03:27:24.895Z,81.10
2018-02-23T03:28:00.491Z,73.20
2018-02-23T03:28:35.702Z,80.10
2018-02-23T03:29:11.074Z,86.70
2018-02-23T03:29:46.210Z,85.30
2018-02-23T03:30:21.463Z,76.70
2018-02-23T03:31:00.050Z,76.20
2018-02-23T03:31:36.178Z,77.90
2018-02-23T03:32:11.354Z,77.30
2018-02-23T03:32:46.911Z,75.70
2018-02-23T03:33:22.222Z,74.80
2018-02-23T03:33:57.594Z,75.60
2018-02-23T03:34:32.901Z,77.70
2018-02-23T03:35:08.556Z,80.20
2018-02-23T03:35:43.857Z,80.60
2018-02-23T03:36:19.386Z,81.80
2018-02-23T03:36:55.041Z,84.00
2018-02-23T03:37:30.687Z,78.10
2018-02-23T03:38:05.906Z,76.30
2018-02-23T03:38:41.169Z,78.80
2018-02-23T03:39:16.285Z,81.50
2018-02-23T03:39:51.630Z,80.40
2018-02-23T03:40:26.990Z,78.90
2018-02-23T03:41:03.081Z,85.40
2018-02-23T03:41:38.609Z,86.50
2018-02-23T03:42:13.827Z,86.60
2018-02-23T03:42:49.352Z,92.80
2018-02-23T03:43:24.572Z,89.40
2018-02-23T03:43:59.886Z,82.40
2018-02-23T03:44:35.192Z,79.80
2018-02-23T03:45:10.391Z,83.90
2018-02-23T03:45:45.695Z,90.60
2018-02-23T03:46:21.304Z,90.00
2018-02-23T03:46:56.902Z,87.60
2018-02-23T03:47:32.388Z,82.20
2018-02-23T03:48:08.003Z,85.20
2018-02-23T03:48:44.288Z,86.50
2018-02-23T03:49:19.521Z,85.70
2018-02-23T03:49:54.933Z,92.20
2018-02-23T03:50:30.344Z,84.60
2018-02-23T03:51:05.444Z,83.80
2018-02-23T03:51:40.870Z,89.00
2018-02-23T03:52:16.175Z,90.70
2018-02-23T03:52:51.836Z,85.20
2018-02-23T03:53:27.166Z,86.30
2018-02-23T03:54:02.578Z,86.40
2018-02-23T03:54:37.893Z,88.10
2018-02-23T03:55:13.608Z,87.80
2018-02-23T03:55:48.982Z,90.20
2018-02-23T03:56:24.108Z,91.40
2018-02-23T03:56:59.491Z,85.40
2018-02-23T03:57:34.914Z,88.10
2018-02-23T03:58:10.428Z,89.00
2018-02-23T03:58:46.373Z,84.80
2018-02-23T03:59:21.681Z,86.10
2018-02-23T03:59:56.786Z,94.80
2018-02-23T04:00:32.329Z,90.70
2018-02-23T04:01:07.812Z,86.50
2018-02-23T04:01:43.035Z,86.80
2018-02-23T04:02:18.835Z,91.80
2018-02-23T04:02:53.973Z,89.70
2018-02-23T04:03:29.371Z,85.90
2018-02-23T04:04:04.775Z,89.30
2018-02-23T04:04:40.104Z,87.70
2018-02-23T04:05:15.997Z,88.90
2018-02-23T04:05:51.389Z,91.20
2018-02-23T04:06:26.713Z,91.70
2018-02-23T04:07:02.005Z,85.20
2018-02-23T04:07:37.217Z,88.50
2018-02-23T04:08:12.544Z,92.00
2018-02-23T04:08:47.967Z,92.90
2018-02-23T04:09:23.615Z,89.40
2018-02-23T04:09:58.727Z,89.80
2018-02-23T04:10:34.048Z,93.20
2018-02-23T04:11:09.626Z,100.10
2018-02-23T04:11:44.848Z,95.20
2018-02-23T04:12:20.249Z,91.00
2018-02-23T04:12:56.091Z,95.70
2018-02-23T04:13:31.502Z,93.50
2018-02-23T04:14:06.591Z,93.00
2018-02-23T04:14:41.811Z,88.80
2018-02-23T04:15:17.327Z,88.00
2018-02-23T04:15:52.753Z,91.40
2018-02-23T04:16:28.269Z,88.60
2018-02-23T04:17:03.465Z,91.10
2018-02-23T04:17:38.897Z,90.90
2018-02-23T04:18:14.221Z,92.50
2018-02-23T04:18:49.442Z,91.90
2018-02-23T04:19:24.862Z,89.80
2018-02-23T04:20:00.550Z,91.90
2018-02-23T04:20:35.860Z,86.10
2018-02-23T04:21:10.962Z,86.20
2018-02-23T04:21:46.185Z,96.10
2018-02-23T04:22:21.902Z,93.80
2018-02-23T04:22:57.115Z,97.30
2018-02-23T04:23:32.564Z,97.30
2018-02-23T04:24:08.091Z,89.20
2018-02-23T04:24:43.530Z,95.70
2018-02-23T04:25:20.164Z,94.00
2018-02-23T04:25:56.652Z,86.90
2018-02-23T04:26:32.388Z,87.00
2018-02-23T04:27:07.773Z,101.10
2018-02-23T04:27:43.103Z,98.70
2018-02-23T04:28:18.319Z,92.90
2018-02-23T04:28:53.644Z,92.50
2018-02-23T04:29:29.170Z,99.40
2018-02-23T04:30:04.463Z,95.40
2018-02-23T04:30:41.008Z,90.70
2018-02-23T04:31:16.200Z,90.50
2018-02-23T04:31:51.329Z,94.40
2018-02-23T04:32:26.648Z,88.30
2018-02-23T04:33:01.862Z,83.70
2018-02-23T04:33:37.084Z,90.00
2018-02-23T04:34:12.484Z,91.50
2018-02-23T04:34:47.926Z,95.30
2018-02-23T04:35:22.932Z,89.70
2018-02-23T04:35:58.132Z,86.90
2018-02-23T04:36:33.470Z,91.20
2018-02-23T04:37:08.846Z,92.30
2018-02-23T04:37:44.095Z,90.80
2018-02-23T04:38:19.609Z,90.90
2018-02-23T04:38:54.712Z,93.30
2018-02-23T04:39:29.934Z,100.70
2018-02-23T04:40:05.278Z,95.90
2018-02-23T04:40:42.088Z,95.30
2018-02-23T04:41:17.307Z,89.30
2018-02-23T04:41:52.571Z,86.20
2018-02-23T04:42:27.898Z,86.50
2018-02-23T04:43:03.390Z,94.60
2018-02-23T04:43:38.725Z,90.30
2018-02-23T04:44:14.004Z,90.10
2018-02-23T04:44:49.121Z,93.50
2018-02-23T04:45:24.545Z,85.60
2018-02-23T04:46:00.044Z,84.00
2018-02-23T04:46:35.536Z,84.80
2018-02-23T04:47:10.751Z,95.10
2018-02-23T04:47:46.405Z,98.50
2018-02-23T04:48:21.948Z,91.70
2018-02-23T04:48:57.222Z,92.80
2018-02-23T04:49:32.667Z,89.80
2018-02-23T04:50:07.970Z,88.20
2018-02-23T04:50:44.665Z,98.60
2018-02-23T04:51:20.004Z,94.30
2018-02-23T04:51:55.209Z,94.60
2018-02-23T04:52:30.314Z,94.20
2018-02-23T04:53:05.592Z,97.00
2018-02-23T04:53:41.027Z,91.50
2018-02-23T04:54:16.311Z,87.30
2018-02-23T04:54:51.520Z,90.60
2018-02-23T04:55:26.634Z,92.80
2018-02-23T04:56:03.435Z,93.90
2018-02-23T04:56:38.999Z,91.00
2018-02-23T04:57:14.412Z,90.20
2018-02-23T04:57:49.936Z,89.80
2018-02-23T04:58:25.188Z,89.60
2018-02-23T04:59:00.799Z,87.60
2018-02-23T04:59:36.107Z,90.80
2018-02-23T05:00:11.782Z,92.40
2018-02-23T05:00:48.922Z,83.60
2018-02-23T05:01:24.471Z,90.50
2018-02-23T05:01:59.760Z,88.20
2018-02-23T05:02:35.189Z,84.70
2018-02-23T05:03:10.352Z,85.20
2018-02-23T05:03:45.514Z,85.50
2018-02-23T05:04:21.235Z,83.30
2018-02-23T05:04:56.342Z,84.20
2018-02-23T05:05:31.570Z,84.20
2018-02-23T05:06:06.870Z,87.10
2018-02-23T05:06:42.291Z,94.60
2018-02-23T05:07:17.581Z,95.00
2018-02-23T05:07:52.941Z,98.80
2018-02-23T05:08:28.306Z,93.80
2018-02-23T05:09:03.431Z,85.50
2018-02-23T05:09:38.759Z,78.10
2018-02-23T05:10:14.183Z,82.50
2018-02-23T05:10:51.261Z,87.50
2018-02-23T05:11:26.874Z,86.80
2018-02-23T05:12:02.172Z,88.20
2018-02-23T05:12:37.525Z,85.00
2018-02-23T05:13:13.128Z,87.80
2018-02-23T05:13:48.414Z,92.10
2018-02-23T05:14:23.620Z,91.40
2018-02-23T05:14:58.950Z,90.80
2018-02-23T05:15:34.275Z,82.40
2018-02-23T05:16:09.783Z,83.60
2018-02-23T05:16:45.213Z,87.40
2018-02-23T05:17:20.736Z,89.60
2018-02-23T05:17:56.329Z,86.20
2018-02-23T05:18:31.729Z,94.20
2018-02-23T05:19:07.235Z,93.40
2018-02-23T05:19:42.775Z,87.60
2018-02-23T05:20:18.083Z,82.80
2018-02-23T05:20:53.401Z,81.40
2018-02-23T05:21:28.726Z,86.10
2018-02-23T05:22:03.910Z,93.50
2018-02-23T05:22:39.220Z,89.30
2018-02-23T05:23:14.597Z,88.80
2018-02-23T05:23:49.938Z,89.90
2018-02-23T05:24:25.377Z,84.90
2018-02-23T05:25:00.772Z,85.40
2018-02-23T05:25:36.481Z,81.00
2018-02-23T05:26:11.996Z,89.50
2018-02-23T05:26:47.513Z,97.70
2018-02-23T05:27:22.725Z,86.90
2018-02-23T05:27:58.224Z,83.50
2018-02-23T05:28:33.655Z,83.20
2018-02-23T05:29:09.005Z,86.30
2018-02-23T05:29:44.378Z,88.00
2018-02-23T05:30:19.441Z,86.80
2018-02-23T05:30:55.903Z,87.70
2018-02-23T05:31:31.238Z,87.40
2018-02-23T05:32:06.550Z,87.10
2018-02-23T05:32:44.300Z,83.00
2018-02-23T05:33:19.641Z,85.30
2018-02-23T05:33:54.994Z,81.30
2018-02-23T05:34:30.698Z,79.80
2018-02-23T05:35:06.293Z,86.00
2018-02-23T05:35:41.600Z,82.00
2018-02-23T05:36:17.203Z,82.40
2018-02-23T05:36:52.516Z,80.00
2018-02-23T05:37:27.962Z,79.90
2018-02-23T05:38:03.244Z,83.80
2018-02-23T05:38:38.356Z,87.30
2018-02-23T05:39:13.561Z,85.00
2018-02-23T05:39:49.228Z,85.60
2018-02-23T05:40:24.737Z,88.20
2018-02-23T05:41:00.034Z,85.70
2018-02-23T05:41:35.650Z,81.90
2018-02-23T05:42:11.037Z,86.10
2018-02-23T05:42:46.357Z,86.80
2018-02-23T05:43:21.772Z,82.60
2018-02-23T05:43:57.585Z,86.10
2018-02-23T05:44:32.913Z,83.90
2018-02-23T05:45:08.020Z,82.10
2018-02-23T05:45:43.879Z,80.20
2018-02-23T05:46:19.314Z,86.40
2018-02-23T05:46:54.404Z,86.80
2018-02-23T05:47:29.925Z,76.80
2018-02-23T05:48:05.329Z,80.30
2018-02-23T05:48:40.759Z,81.90
2018-02-23T05:49:15.965Z,79.90
2018-02-23T05:49:51.277Z,84.30
2018-02-23T05:50:26.397Z,86.60
2018-02-23T05:51:01.871Z,85.60
2018-02-23T05:51:36.986Z,86.50
2018-02-23T05:52:12.184Z,87.50
2018-02-23T05:52:47.586Z,80.80
2018-02-23T05:53:23.015Z,77.50
2018-02-23T05:53:58.543Z,82.30
2018-02-23T05:54:33.644Z,81.60
2018-02-23T05:55:09.242Z,82.80
2018-02-23T05:55:44.343Z,75.40
2018-02-23T05:56:19.764Z,74.70
2018-02-23T05:56:55.190Z,74.20
2018-02-23T05:57:30.622Z,84.40
2018-02-23T05:58:05.833Z,74.90
2018-02-23T05:58:41.259Z,77.90
2018-02-23T05:59:16.887Z,80.40
2018-02-23T05:59:52.619Z,77.00
2018-02-23T06:00:28.226Z,83.80
2018-02-23T06:01:03.708Z,78.60
2018-02-23T06:01:39.131Z,80.30
2018-02-23T06:02:14.523Z,84.80
2018-02-23T06:02:50.070Z,85.80
2018-02-23T06:03:25.500Z,80.80
2018-02-23T06:04:00.815Z,82.00
2018-02-23T06:04:36.183Z,86.60
2018-02-23T06:05:12.474Z,79.70
2018-02-23T06:05:47.690Z,76.80
2018-02-23T06:06:23.229Z,72.00
2018-02-23T06:06:58.557Z,70.10
2018-02-23T06:07:33.816Z,75.50
2018-02-23T06:08:09.426Z,76.90
2018-02-23T06:08:45.070Z,78.40
2018-02-23T06:09:20.427Z,74.60
2018-02-23T06:09:55.961Z,75.00
2018-02-23T06:10:31.356Z,73.20
2018-02-23T06:11:06.928Z,81.80
2018-02-23T06:11:43.216Z,81.10
2018-02-23T06:12:18.608Z,75.80
2018-02-23T06:12:54.131Z,71.00
2018-02-23T06:13:29.657Z,75.20
2018-02-23T06:14:05.059Z,73.00
2018-02-23T06:14:40.616Z,78.90
2018-02-23T06:15:16.390Z,77.80
2018-02-23T06:15:51.856Z,75.70
2018-02-23T06:16:27.366Z,72.50
2018-02-23T06:17:02.700Z,70.20
2018-02-23T06:17:37.934Z,72.70
2018-02-23T06:18:13.325Z,71.60
2018-02-23T06:18:48.454Z,71.30
2018-02-23T06:19:23.911Z,69.70
2018-02-23T06:19:59.281Z,68.20
2018-02-23T06:20:34.534Z,70.70
2018-02-23T06:21:09.761Z,71.50
2018-02-23T06:21:44.927Z,71.80
2018-02-23T06:22:20.376Z,69.80
2018-02-23T06:22:58.778Z,64.40
2018-02-23T06:23:36.616Z,66.30
2018-02-23T06:24:11.833Z,64.40
2018-02-23T06:24:47.216Z,62.30
2018-02-23T06:25:22.987Z,64.80
2018-02-23T06:26:01.690Z,67.10
2018-02-23T06:26:39.050Z,61.60
2018-02-23T06:27:14.331Z,65.10
2018-02-23T06:27:49.798Z,71.70
2018-02-23T06:28:24.964Z,61.10
2018-02-23T06:29:00.350Z,64.90
2018-02-23T06:29:36.006Z,68.50
2018-02-23T06:30:11.300Z,63.70
2018-02-23T06:30:47.716Z,62.40
2018-02-23T06:31:23.349Z,68.20
2018-02-23T06:31:58.745Z,63.90
2018-02-23T06:32:34.231Z,63.90
2018-02-23T06:33:09.540Z,65.00
2018-02-23T06:33:44.764Z,63.00
2018-02-23T06:34:20.505Z,69.30
2018-02-23T06:34:56.040Z,69.90
2018-02-23T06:35:31.459Z,73.20
2018-02-23T06:36:08.072Z,67.90
2018-02-23T06:36:44.615Z,63.10
2018-02-23T06:37:19.950Z,60.90
2018-02-23T06:37:55.234Z,65.70
2018-02-23T06:38:30.588Z,68.10
2018-02-23T06:39:06.149Z,64.20
2018-02-23T06:39:41.727Z,62.60
2018-02-23T06:40:17.060Z,64.60
2018-02-23T06:40:53.656Z,64.30
2018-02-23T06:41:29.003Z,63.70
2018-02-23T06:42:04.302Z,59.50
2018-02-23T06:42:39.711Z,57.70
2018-02-23T06:43:15.005Z,62.80
2018-02-23T06:43:50.215Z,59.40
2018-02-23T06:44:25.856Z,61.50
2018-02-23T06:45:01.491Z,65.50
2018-02-23T06:45:39.892Z,63.70
2018-02-23T06:46:15.091Z,66.80
2018-02-23T06:46:50.845Z,63.80
2018-02-23T06:47:26.087Z,58.90
2018-02-23T06:48:02.938Z,63.00
2018-02-23T06:48:38.591Z,60.70
2018-02-23T06:49:14.013Z,64.30
2018-02-23T06:49:49.473Z,64.10
2018-02-23T06:50:24.716Z,58.40
2018-02-23T06:51:00.026Z,62.70
2018-02-23T06:51:35.559Z,65.70
2018-02-23T06:52:11.044Z,63.70
2018-02-23T06:52:48.392Z,67.40
2018-02-23T06:53:23.852Z,67.70
2018-02-23T06:53:59.458Z,63.60
2018-02-23T06:54:34.894Z,62.80
2018-02-23T06:55:10.101Z,63.90
2018-02-23T06:55:47.546Z,63.00
2018-02-23T06:56:25.965Z,63.00
2018-02-23T06:57:01.178Z,64.10
2018-02-23T06:57:36.583Z,59.80
2018-02-23T06:58:12.001Z,57.70
2018-02-23T06:58:47.525Z,60.60
2018-02-23T06:59:22.855Z,58.90
2018-02-23T06:59:58.178Z,60.60
2018-02-23T07:00:33.821Z,64.40
2018-02-23T07:01:09.216Z,60.60
2018-02-23T07:01:45.573Z,56.60
2018-02-23T07:02:21.137Z,58.20
2018-02-23T07:02:56.554Z,55.60
2018-02-23T07:03:32.143Z,54.60
2018-02-23T07:04:07.801Z,53.80
2018-02-23T07:04:43.250Z,50.90
2018-02-23T07:05:18.963Z,52.40
2018-02-23T07:05:54.275Z,54.20
2018-02-23T07:06:29.927Z,48.00
2018-02-23T07:07:05.241Z,52.30
2018-02-23T07:07:40.598Z,53.00
2018-02-23T07:08:15.816Z,51.40
2018-02-23T07:08:51.961Z,52.70
2018-02-23T07:09:27.290Z,49.60
2018-02-23T07:10:02.512Z,47.40
2018-02-23T07:10:40.141Z,48.40
2018-02-23T07:11:15.377Z,45.20
2018-02-23T07:11:50.660Z,44.50
2018-02-23T07:12:26.114Z,45.00
2018-02-23T07:13:01.314Z,47.80
2018-02-23T07:13:36.862Z,47.40
2018-02-23T07:14:12.061Z,49.60
2018-02-23T07:14:47.489Z,48.20
2018-02-23T07:15:22.624Z,46.80
2018-02-23T07:15:59.203Z,46.00
2018-02-23T07:16:34.839Z,43.30
2018-02-23T07:17:10.229Z,44.20
2018-02-23T07:17:45.821Z,45.20
2018-02-23T07:18:21.045Z,49.00
2018-02-23T07:18:56.430Z,51.40
2018-02-23T07:19:31.871Z,47.70
2018-02-23T07:20:07.490Z,45.00
2018-02-23T07:20:44.858Z,42.10
2018-02-23T07:21:20.279Z,43.10
2018-02-23T07:21:55.673Z,46.60
2018-02-23T07:22:31.283Z,44.20
2018-02-23T07:23:06.828Z,43.50
2018-02-23T07:23:42.246Z,45.10
2018-02-23T07:24:17.657Z,43.60
2018-02-23T07:24:53.038Z,43.10
2018-02-23T07:25:28.514Z,40.60
2018-02-23T07:26:05.204Z,40.60
2018-02-23T07:26:40.702Z,43.20
2018-02-23T07:27:16.213Z,45.60
2018-02-23T07:27:51.662Z,48.10
2018-02-23T07:28:27.078Z,45.00
2018-02-23T07:29:02.462Z,42.10
2018-02-23T07:29:37.997Z,43.80
2018-02-23T07:30:13.519Z,44.50
2018-02-23T07:30:50.743Z,42.20
2018-02-23T07:31:25.954Z,45.50
2018-02-23T07:32:00.953Z,44.90
2018-02-23T07:32:37.631Z,38.30
2018-02-23T07:33:13.031Z,41.90
2018-02-23T07:33:48.547Z,43.70
2018-02-23T07:34:23.676Z,40.20
2018-02-23T07:34:59.097Z,42.00
2018-02-23T07:35:34.735Z,40.30
2018-02-23T07:36:14.352Z,42.70
2018-02-23T07:36:49.827Z,43.00
2018-02-23T07:37:25.602Z,45.80
2018-02-23T07:38:01.005Z,43.90
2018-02-23T07:38:36.445Z,45.00
2018-02-23T07:39:11.881Z,43.30